Time;durP1;ratioP1;P1;durP2;ratioP2;P2;SDS_P1;SDS_P2;PMS_P1;PMS_P2;Temp;Humidity;BMP_temperature;BMP_pressure;BME280_temperature;BME280_humidity;BME280_pressure;Samples;Min_cycle;Max_cycle;Signal;HPM_P1;HPM_P2
2021/10/03 00:00:38;;;;;;;9.85;6.00;;;;;;;12.13;100.00;100317.53;4806464;29;20050;-79
2021/10/03 00:03:10;;;;;;;9.65;6.18;;;;;;;12.17;100.00;100324.94;4775384;29;20039;-79
2021/10/03 00:05:37;;;;;;;9.77;5.43;;;;;;;12.12;100.00;100313.16;4790123;29;20075;-79
2021/10/03 00:08:05;;;;;;;12.73;6.13;;;;;;;12.15;100.00;100291.16;4771330;29;20026;-79
2021/10/03 00:10:32;;;;;;;7.38;5.93;;;;;;;12.06;100.00;100279.84;4760061;29;20470;-78
2021/10/03 00:13:04;;;;;;;8.25;5.32;;;;;;;12.10;100.00;100282.91;4789969;29;20458;-79
2021/10/03 00:15:40;;;;;;;13.52;5.40;;;;;;;12.09;100.00;100275.88;4801768;29;20035;-79
2021/10/03 00:18:07;;;;;;;8.00;5.40;;;;;;;12.08;100.00;100266.13;4803364;29;20423;-79
2021/10/03 00:20:33;;;;;;;9.18;5.50;;;;;;;12.04;100.00;100267.63;4789625;29;20038;-79
2021/10/03 00:22:59;;;;;;;9.07;5.53;;;;;;;12.08;100.00;100272.34;4789558;29;20034;-79
2021/10/03 00:25:28;;;;;;;8.43;5.72;;;;;;;12.09;100.00;100260.53;4789339;29;20035;-79
2021/10/03 00:27:55;;;;;;;8.57;5.25;;;;;;;12.04;100.00;100257.66;4793874;29;20486;-79
2021/10/03 00:30:21;;;;;;;7.40;5.43;;;;;;;12.05;100.00;100248.50;4807387;29;20057;-79
2021/10/03 00:32:47;;;;;;;8.75;5.43;;;;;;;12.08;100.00;100256.16;4808715;29;20026;-79
2021/10/03 00:35:13;;;;;;;8.15;6.05;;;;;;;12.09;100.00;100235.44;4810249;29;20067;-79
2021/10/03 00:37:39;;;;;;;9.73;5.57;;;;;;;12.00;100.00;100213.31;4779411;29;20031;-79
2021/10/03 00:40:06;;;;;;;8.98;6.00;;;;;;;12.05;100.00;100229.63;4810142;29;20069;-79
2021/10/03 00:42:32;;;;;;;11.30;5.45;;;;;;;12.01;100.00;100208.72;4804928;29;20023;-79
2021/10/03 00:44:58;;;;;;;8.20;5.82;;;;;;;12.06;100.00;100209.72;4805041;29;20471;-79
2021/10/03 00:47:23;;;;;;;9.23;5.93;;;;;;;12.04;100.00;100194.81;4804376;29;20038;-79
2021/10/03 00:49:49;;;;;;;8.73;5.70;;;;;;;12.02;100.00;100200.44;4788555;29;20126;-79
2021/10/03 00:52:15;;;;;;;11.07;5.88;;;;;;;12.03;100.00;100177.81;4809134;29;20106;-79
2021/10/03 00:54:40;;;;;;;7.75;5.78;;;;;;;12.09;100.00;100186.88;4807748;29;20078;-79
2021/10/03 00:57:06;;;;;;;10.10;6.10;;;;;;;12.12;100.00;100189.09;4778445;29;20045;-79
2021/10/03 00:59:33;;;;;;;9.57;5.50;;;;;;;12.15;100.00;100185.97;4805552;29;20055;-79
2021/10/03 01:01:59;;;;;;;10.45;5.72;;;;;;;12.09;100.00;100181.50;4805243;29;20050;-79
2021/10/03 01:04:25;;;;;;;12.00;5.88;;;;;;;12.05;100.00;100173.00;4776094;29;20131;-79
2021/10/03 01:06:51;;;;;;;9.10;5.85;;;;;;;12.17;100.00;100170.41;4804471;29;20565;-79
2021/10/03 01:09:19;;;;;;;9.38;6.18;;;;;;;11.97;100.00;100136.38;4765808;29;20050;-79
2021/10/03 01:11:45;;;;;;;8.43;6.30;;;;;;;12.12;100.00;100168.38;4801725;29;20038;-78
2021/10/03 01:14:12;;;;;;;10.50;5.97;;;;;;;12.25;100.00;100167.41;4804841;29;20030;-78
2021/10/03 01:16:40;;;;;;;11.30;6.30;;;;;;;12.24;100.00;100157.66;4776263;29;20031;-79
2021/10/03 01:19:07;;;;;;;10.02;5.95;;;;;;;12.33;100.00;100152.78;4788395;29;20047;-79
2021/10/03 01:21:33;;;;;;;10.85;6.28;;;;;;;12.20;100.00;100124.91;4802924;29;20472;-79
2021/10/03 01:23:59;;;;;;;8.60;6.32;;;;;;;12.35;100.00;100139.88;4804619;29;20076;-79
2021/10/03 01:26:27;;;;;;;9.65;6.20;;;;;;;12.33;100.00;100142.81;4789647;29;20051;-79
2021/10/03 01:28:53;;;;;;;11.25;6.63;;;;;;;12.35;100.00;100131.78;4786231;29;20039;-79
2021/10/03 01:31:25;;;;;;;10.32;6.57;;;;;;;12.32;100.00;100113.38;4796081;29;20481;-78
2021/10/03 01:33:52;;;;;;;9.52;6.32;;;;;;;12.22;100.00;100103.94;4803627;29;20435;-79
2021/10/03 01:36:17;;;;;;;11.63;7.13;;;;;;;12.22;100.00;100085.06;4788553;29;20099;-79
2021/10/03 01:38:43;;;;;;;10.57;6.75;;;;;;;12.10;100.00;100057.19;4773308;29;20054;-78
2021/10/03 01:41:08;;;;;;;10.68;7.20;;;;;;;12.14;100.00;100063.78;4804466;29;20803;-79
2021/10/03 01:43:34;;;;;;;11.10;7.13;;;;;;;12.19;100.00;100082.81;4760691;29;20094;-79
2021/10/03 01:46:01;;;;;;;9.00;7.22;;;;;;;12.23;100.00;100085.88;4791522;29;20050;-79
2021/10/03 01:48:29;;;;;;;9.88;7.07;;;;;;;12.12;100.00;100065.91;4796168;29;20034;-79
2021/10/03 01:51:04;;;;;;;12.43;7.05;;;;;;;12.20;100.00;100062.88;4801268;29;20035;-79
2021/10/03 01:53:36;;;;;;;9.02;6.70;;;;;;;12.12;100.00;100038.94;4802958;29;20359;-79
2021/10/03 01:56:04;;;;;;;10.55;7.60;;;;;;;12.22;100.00;100041.91;4804903;29;20335;-79
2021/10/03 01:58:32;;;;;;;10.07;6.55;;;;;;;12.23;100.00;100040.03;4800755;29;20063;-79
2021/10/03 02:01:09;;;;;;;10.38;6.75;;;;;;;12.17;100.00;100049.84;4788268;29;20473;-79
2021/10/03 02:03:35;;;;;;;12.00;6.30;;;;;;;12.16;100.00;100029.31;4786298;29;20050;-79
2021/10/03 02:06:00;;;;;;;8.38;6.60;;;;;;;12.23;100.00;100027.34;4787300;29;20419;-79
2021/10/03 02:08:25;;;;;;;12.20;6.68;;;;;;;12.26;100.00;100019.88;4799452;29;20076;-79
2021/10/03 02:10:53;;;;;;;9.68;6.68;;;;;;;12.32;100.00;100011.69;4771881;29;20439;-79
2021/10/03 02:13:22;;;;;;;9.48;6.38;;;;;;;12.30;100.00;100005.69;4790775;29;20118;-79
2021/10/03 02:15:48;;;;;;;10.60;6.53;;;;;;;12.27;100.00;99994.53;4797753;29;20107;-79
2021/10/03 02:18:16;;;;;;;8.52;6.38;;;;;;;12.15;100.00;99973.75;4800221;29;20027;-79
2021/10/03 02:20:43;;;;;;;10.05;6.43;;;;;;;12.37;100.00;99997.50;4804415;29;20355;-79
2021/10/03 02:23:11;;;;;;;9.38;6.80;;;;;;;12.38;100.00;99977.53;4773068;29;20103;-79
2021/10/03 02:25:47;;;;;;;13.68;6.15;;;;;;;12.47;100.00;99981.56;4802732;29;20042;-79
2021/10/03 02:28:22;;;;;;;8.77;6.00;;;;;;;12.45;100.00;99973.72;4800287;29;20034;-79
2021/10/03 02:30:50;;;;;;;8.90;6.32;;;;;;;12.49;100.00;99965.16;4802511;29;20351;-79
2021/10/03 02:33:15;;;;;;;7.28;5.45;;;;;;;12.50;100.00;99943.31;4802436;29;20035;-79
2021/10/03 02:35:43;;;;;;;8.38;5.90;;;;;;;12.52;100.00;99946.63;4803295;29;20061;-78
2021/10/03 02:38:18;;;;;;;8.38;5.88;;;;;;;12.53;100.00;99947.44;4801671;29;20039;-80
2021/10/03 02:40:45;;;;;;;7.85;5.78;;;;;;;12.52;100.00;99937.72;4803311;29;20465;-78
2021/10/03 02:43:13;;;;;;;7.88;5.72;;;;;;;12.36;100.00;99882.53;4770513;29;20035;-78
2021/10/03 02:45:42;;;;;;;9.00;5.75;;;;;;;12.49;100.00;99916.59;4787900;29;20122;-79
2021/10/03 02:48:09;;;;;;;10.65;5.32;;;;;;;12.62;100.00;99922.56;4802508;29;20038;-78
2021/10/03 02:50:35;;;;;;;9.02;5.70;;;;;;;12.63;100.00;99935.00;4802964;29;20117;-79
2021/10/03 02:53:02;;;;;;;7.18;5.38;;;;;;;12.60;100.00;99913.88;4786895;29;20121;-78
2021/10/03 02:55:29;;;;;;;10.40;5.57;;;;;;;12.58;100.00;99901.66;4770373;29;20366;-79
2021/10/03 02:57:54;;;;;;;6.97;5.30;;;;;;;12.63;100.00;99921.50;4788364;29;20369;-79
2021/10/03 03:00:19;;;;;;;6.97;5.25;;;;;;;12.65;100.00;99927.50;4800938;29;20047;-79
2021/10/03 03:02:45;;;;;;;8.30;5.60;;;;;;;12.64;100.00;99920.44;4771671;29;20039;-79
2021/10/03 03:05:10;;;;;;;8.63;4.95;;;;;;;12.58;100.00;99907.91;4802807;29;20066;-79
2021/10/03 03:07:37;;;;;;;11.82;5.93;;;;;;;12.56;100.00;99901.91;4802029;29;20049;-79
2021/10/03 03:10:05;;;;;;;9.20;5.70;;;;;;;12.57;100.00;99875.75;4769787;29;20035;-79
2021/10/03 03:12:30;;;;;;;9.63;5.72;;;;;;;12.62;100.00;99897.47;4785671;29;20055;-79
2021/10/03 03:14:55;;;;;;;7.95;5.45;;;;;;;12.61;100.00;99898.50;4773684;29;20070;-79
2021/10/03 03:17:22;;;;;;;9.48;5.60;;;;;;;12.55;100.00;99878.69;4802918;29;20370;-78
2021/10/03 03:19:48;;;;;;;7.13;5.30;;;;;;;12.53;100.00;99871.88;4779420;29;20043;-79
2021/10/03 03:22:14;;;;;;;8.63;5.75;;;;;;;12.65;100.00;99889.72;4772928;29;20366;-78
2021/10/03 03:24:42;;;;;;;9.27;6.00;;;;;;;12.59;100.00;99882.56;4790679;29;20417;-79
2021/10/03 03:27:09;;;;;;;9.63;6.47;;;;;;;12.53;100.00;99871.88;4789041;29;20129;-78
2021/10/03 03:29:36;;;;;;;9.00;5.63;;;;;;;12.41;100.00;99843.00;4773402;30;20053;-79
2021/10/03 03:32:02;;;;;;;7.68;6.53;;;;;;;12.56;100.00;99880.31;4802024;29;20035;-79
2021/10/03 03:34:28;;;;;;;10.32;6.47;;;;;;;11.91;100.00;99769.81;4773349;30;20041;-79
2021/10/03 03:36:55;;;;;;;11.18;6.60;;;;;;;12.55;100.00;99859.81;4772863;30;20083;-79
2021/10/03 03:39:20;;;;;;;11.73;7.30;;;;;;;12.47;100.00;99841.25;4781432;29;20031;-79
2021/10/03 03:41:46;;;;;;;10.05;7.05;;;;;;;12.36;100.00;99802.44;4777585;30;20356;-79
2021/10/03 03:44:12;;;;;;;10.13;7.40;;;;;;;12.20;100.00;99790.47;4773392;30;20358;-79
2021/10/03 03:46:37;;;;;;;8.65;6.90;;;;;;;12.41;100.00;99831.38;4773826;30;20035;-79
2021/10/03 03:49:03;;;;;;;10.55;6.97;;;;;;;12.33;100.00;99819.09;4758780;30;20043;-79
2021/10/03 03:51:28;;;;;;;10.80;7.40;;;;;;;12.41;100.00;99820.59;4790546;29;20049;-79
2021/10/03 03:53:54;;;;;;;10.43;7.07;;;;;;;12.28;100.00;99793.88;4786168;29;20081;-79
2021/10/03 03:56:19;;;;;;;9.30;6.85;;;;;;;12.35;100.00;99816.13;4774578;29;20050;-78
2021/10/03 03:58:44;;;;;;;10.63;7.85;;;;;;;12.36;100.00;99807.81;4790045;29;20465;-79
2021/10/03 04:01:10;;;;;;;8.90;7.10;;;;;;;12.37;100.00;99800.56;4811172;29;20524;-79
2021/10/03 04:03:37;;;;;;;11.25;7.35;;;;;;;12.36;100.00;99804.31;4764632;29;20062;-79
2021/10/03 04:06:02;;;;;;;9.25;7.47;;;;;;;12.34;100.00;99790.22;4768841;29;20130;-78
2021/10/03 04:08:29;;;;;;;9.98;7.47;;;;;;;12.20;100.00;99766.19;4789315;29;20148;-78
2021/10/03 04:10:54;;;;;;;12.35;7.97;;;;;;;12.32;100.00;99781.56;4802888;29;20045;-79
2021/10/03 04:13:20;;;;;;;10.20;8.30;;;;;;;12.34;100.00;99809.13;4777310;29;20039;-79
2021/10/03 04:15:46;;;;;;;10.82;7.93;;;;;;;12.34;100.00;99792.94;4809958;29;20422;-80
2021/10/03 04:18:12;;;;;;;12.63;7.60;;;;;;;12.27;100.00;99776.88;4811068;29;20053;-78
2021/10/03 04:20:38;;;;;;;10.80;8.27;;;;;;;12.28;100.00;99796.56;4791222;29;20118;-78
2021/10/03 04:23:03;;;;;;;12.27;7.90;;;;;;;12.29;100.00;99785.56;4788612;29;20121;-78
2021/10/03 04:25:29;;;;;;;10.50;7.95;;;;;;;12.29;100.00;99785.56;4806436;29;20058;-78
2021/10/03 04:27:55;;;;;;;13.90;8.35;;;;;;;12.32;100.00;99784.28;4778019;29;20046;-78
2021/10/03 04:30:20;;;;;;;11.55;7.93;;;;;;;12.25;100.00;99767.34;4768904;29;20076;-78
2021/10/03 04:32:45;;;;;;;10.18;8.15;;;;;;;12.35;100.00;99783.78;4807276;29;20031;-78
2021/10/03 04:35:11;;;;;;;10.95;7.35;;;;;;;12.35;100.00;99775.69;4789486;29;20581;-79
2021/10/03 04:37:36;;;;;;;11.00;7.38;;;;;;;12.34;100.00;99776.75;4790755;30;20039;-79
2021/10/03 04:40:04;;;;;;;10.98;8.48;;;;;;;12.28;100.00;99766.88;4764934;30;20050;-78
2021/10/03 04:42:30;;;;;;;13.07;7.85;;;;;;;12.10;100.00;99735.50;4794538;30;20050;-78
2021/10/03 04:44:56;;;;;;;10.30;7.68;;;;;;;12.36;100.00;99772.75;4779882;30;20062;-78
2021/10/03 04:47:22;;;;;;;9.43;7.72;;;;;;;12.27;100.00;99740.97;4761882;30;20451;-78
2021/10/03 04:49:53;;;;;;;13.10;9.07;;;;;;;12.39;100.00;99761.50;4791950;30;20027;-78
2021/10/03 04:52:25;;;;;;;13.15;8.38;;;;;;;12.41;100.00;99753.97;4778239;30;20035;-79
2021/10/03 04:54:50;;;;;;;11.43;8.30;;;;;;;12.43;100.00;99748.34;4773591;30;20411;-78
2021/10/03 04:57:16;;;;;;;12.40;8.88;;;;;;;12.30;100.00;99724.31;4776062;30;20065;-79
2021/10/03 04:59:42;;;;;;;10.85;8.32;;;;;;;12.44;100.00;99744.59;4779671;30;20032;-79
2021/10/03 05:02:08;;;;;;;12.13;8.73;;;;;;;12.28;100.00;99696.75;4792451;30;20100;-79
2021/10/03 05:04:33;;;;;;;13.27;8.70;;;;;;;12.52;100.00;99727.22;4784135;29;20047;-78
2021/10/03 05:06:59;;;;;;;10.50;8.40;;;;;;;12.55;100.00;99705.13;4788490;29;20031;-78
2021/10/03 05:09:24;;;;;;;12.35;8.80;;;;;;;12.48;100.00;99699.88;4766164;29;20034;-79
2021/10/03 05:11:49;;;;;;;13.10;8.75;;;;;;;12.51;100.00;99687.78;4764426;29;20069;-78
2021/10/03 05:14:16;;;;;;;8.48;7.38;;;;;;;12.62;100.00;99697.75;4787044;29;20035;-78
2021/10/03 05:16:41;;;;;;;13.65;9.10;;;;;;;12.56;100.00;99687.91;4790264;29;20051;-79
2021/10/03 05:19:07;;;;;;;12.90;8.93;;;;;;;12.58;100.00;99670.44;4803578;29;20049;-79
2021/10/03 05:21:32;;;;;;;13.77;9.50;;;;;;;12.58;100.00;99681.22;4788230;29;20038;-78
2021/10/03 05:23:58;;;;;;;13.93;9.18;;;;;;;12.67;100.00;99689.75;4787968;29;20058;-78
2021/10/03 05:26:24;;;;;;;15.63;10.02;;;;;;;12.66;100.00;99688.94;4803348;29;20161;-79
2021/10/03 05:28:51;;;;;;;14.65;9.50;;;;;;;12.68;100.00;99681.41;4786039;29;20035;-79
2021/10/03 05:31:17;;;;;;;13.63;9.93;;;;;;;12.66;100.00;99691.63;4774983;29;20470;-79
2021/10/03 05:33:43;;;;;;;14.52;10.77;;;;;;;12.69;100.00;99685.75;4773500;30;20058;-78
2021/10/03 05:36:09;;;;;;;14.10;10.25;;;;;;;12.63;100.00;99684.00;4789280;30;20526;-78
2021/10/03 05:38:34;;;;;;;15.25;9.95;;;;;;;12.72;100.00;99687.16;4773519;30;20122;-78
2021/10/03 05:41:00;;;;;;;12.13;9.63;;;;;;;12.69;100.00;99684.94;4774971;30;20066;-78
2021/10/03 05:43:25;;;;;;;15.27;10.65;;;;;;;12.52;100.00;99657.91;4791121;29;20035;-78
2021/10/03 05:45:52;;;;;;;12.10;9.13;;;;;;;12.77;100.00;99687.22;4805218;29;20088;-78
2021/10/03 05:48:19;;;;;;;12.18;9.00;;;;;;;12.66;100.00;99637.66;4789248;29;20465;-79
2021/10/03 05:50:44;;;;;;;17.10;9.73;;;;;;;12.75;100.00;99648.03;4809588;29;20093;-79
2021/10/03 05:53:10;;;;;;;15.68;9.63;;;;;;;12.86;100.00;99666.91;4798358;29;20043;-80
2021/10/03 05:55:36;;;;;;;11.18;8.93;;;;;;;12.90;100.00;99673.44;4788209;29;20061;-80
2021/10/03 05:58:02;;;;;;;11.73;8.70;;;;;;;12.91;100.00;99664.31;4793486;29;20031;-78
2021/10/03 06:00:28;;;;;;;11.63;9.30;;;;;;;12.93;100.00;99669.44;4804017;29;20095;-80
2021/10/03 06:02:53;;;;;;;11.43;8.57;;;;;;;12.82;100.00;99637.94;4784419;30;20035;-80
2021/10/03 06:05:20;;;;;;;9.65;7.47;;;;;;;12.89;100.00;99622.41;4792273;30;20055;-79
2021/10/03 06:07:45;;;;;;;10.45;7.93;;;;;;;12.87;100.00;99617.22;4792242;30;20046;-81
2021/10/03 06:10:11;;;;;;;9.38;7.22;;;;;;;13.09;100.00;99633.56;4798533;29;20038;-79
2021/10/03 06:12:36;;;;;;;10.65;7.55;;;;;;;13.18;100.00;99652.88;4760446;29;20038;-80
2021/10/03 06:15:02;;;;;;;9.15;7.68;;;;;;;13.10;100.00;99637.88;4777417;29;20077;-80
2021/10/03 06:17:28;;;;;;;8.75;6.47;;;;;;;13.06;100.00;99617.84;4802419;29;20052;-79
2021/10/03 06:19:53;;;;;;;12.48;8.07;;;;;;;13.26;100.00;99644.41;4805983;29;20038;-81
2021/10/03 06:22:24;;;;;;;12.30;8.82;;;;;;;13.30;100.00;99656.34;4801033;29;20434;-80
2021/10/03 06:24:50;;;;;;;13.80;9.10;;;;;;;13.29;100.00;99643.91;4793825;29;20047;-80
2021/10/03 06:27:18;;;;;;;14.27;9.43;;;;;;;13.31;100.00;99630.13;4785503;29;20034;-79
2021/10/03 06:29:44;;;;;;;13.52;9.30;;;;;;;13.13;100.00;99621.19;4778250;30;20332;-80
2021/10/03 06:32:09;;;;;;;14.20;9.38;;;;;;;13.29;100.00;99627.69;4793325;29;20079;-80
2021/10/03 06:34:35;;;;;;;14.43;9.40;;;;;;;13.37;100.00;99632.69;4802869;29;20877;-80
2021/10/03 06:37:00;;;;;;;15.20;10.07;;;;;;;13.38;100.00;99660.53;4774003;29;20030;-79
2021/10/03 06:39:25;;;;;;;14.75;9.80;;;;;;;13.39;100.00;99662.16;4783148;29;20046;-80
2021/10/03 06:41:51;;;;;;;13.25;9.18;;;;;;;13.44;100.00;99642.50;4777426;29;20062;-80
2021/10/03 06:44:17;;;;;;;11.73;9.27;;;;;;;13.46;100.00;99652.00;4774487;29;20027;-80
2021/10/03 06:46:42;;;;;;;13.73;8.85;;;;;;;13.51;100.00;99660.22;4796904;29;20031;-80
2021/10/03 06:49:08;;;;;;;13.77;9.40;;;;;;;13.34;100.00;99633.19;4775371;29;20042;-79
2021/10/03 06:51:33;;;;;;;12.75;9.25;;;;;;;13.54;100.00;99669.69;4792773;29;20474;-79
2021/10/03 06:53:59;;;;;;;13.73;9.82;;;;;;;13.48;100.00;99655.28;4772708;29;20097;-79
2021/10/03 06:56:24;;;;;;;14.55;9.77;;;;;;;13.57;100.00;99661.09;4786857;29;20046;-80
2021/10/03 06:58:50;;;;;;;15.77;10.25;;;;;;;13.49;100.00;99665.03;4774363;29;20123;-79
2021/10/03 07:01:16;;;;;;;13.50;9.93;;;;;;;13.52;100.00;99653.72;4769662;29;20125;-79
2021/10/03 07:03:42;;;;;;;14.13;10.32;;;;;;;13.57;100.00;99678.13;4802700;29;20042;-78
2021/10/03 07:06:10;;;;;;;17.80;10.68;;;;;;;13.57;100.00;99680.81;4803003;29;20141;-78
2021/10/03 07:08:35;;;;;;;20.65;11.32;;;;;;;13.57;100.00;99688.94;4787636;29;20435;-78
2021/10/03 07:11:01;;;;;;;18.02;10.90;;;;;;;13.62;100.00;99666.59;4801225;29;20038;-78
2021/10/03 07:13:32;;;;;;;17.70;10.35;;;;;;;13.65;100.00;99654.47;4802190;29;20183;-79
2021/10/03 07:15:58;;;;;;;17.23;10.60;;;;;;;13.66;100.00;99667.72;4774705;29;20042;-79
2021/10/03 07:18:23;;;;;;;18.88;11.40;;;;;;;13.67;100.00;99682.88;4771880;29;20492;-79
2021/10/03 07:20:49;;;;;;;16.75;11.10;;;;;;;13.66;100.00;99669.63;4794594;29;20042;-79
2021/10/03 07:23:14;;;;;;;18.33;11.18;;;;;;;13.68;100.00;99673.72;4801488;29;20050;-79
2021/10/03 07:25:40;;;;;;;18.70;11.75;;;;;;;13.65;100.00;99676.91;4783291;29;20045;-79
2021/10/03 07:28:05;;;;;;;18.92;11.00;;;;;;;13.67;100.00;99680.16;4785854;29;20109;-79
2021/10/03 07:30:31;;;;;;;18.77;10.95;;;;;;;13.67;100.00;99684.75;4801001;29;20043;-79
2021/10/03 07:32:56;;;;;;;16.52;10.68;;;;;;;13.69;100.00;99678.03;4788709;29;20091;-79
2021/10/03 07:35:22;;;;;;;19.88;11.77;;;;;;;13.67;100.00;99674.75;4805851;29;20038;-79
2021/10/03 07:37:48;;;;;;;17.95;11.75;;;;;;;13.63;100.00;99671.72;4806901;29;20076;-80
2021/10/03 07:40:15;;;;;;;22.05;12.65;;;;;;;13.71;100.00;99670.53;4782077;29;20023;-79
2021/10/03 07:42:42;;;;;;;24.92;13.02;;;;;;;13.67;100.00;99673.94;4797469;29;20044;-79
2021/10/03 07:45:08;;;;;;;29.73;13.63;;;;;;;13.72;100.00;99655.13;4811280;29;20518;-79
2021/10/03 07:47:34;;;;;;;26.05;13.85;;;;;;;13.65;100.00;99663.41;4812030;29;20064;-80
2021/10/03 07:49:59;;;;;;;22.15;13.13;;;;;;;13.74;100.00;99678.13;4810033;29;20028;-80
2021/10/03 07:52:24;;;;;;;23.15;13.20;;;;;;;13.75;100.00;99678.94;4777681;29;20101;-79
2021/10/03 07:54:50;;;;;;;29.27;14.15;;;;;;;13.75;100.00;99689.75;4803112;29;20062;-79
2021/10/03 07:57:17;;;;;;;25.25;14.20;;;;;;;13.74;100.00;99682.69;4773648;29;20529;-80
2021/10/03 07:59:42;;;;;;;20.02;13.55;;;;;;;13.78;100.00;99691.97;4803164;29;20047;-79
2021/10/03 08:02:07;;;;;;;21.58;13.27;;;;;;;13.78;100.00;99690.09;4790342;29;20523;-80
2021/10/03 08:04:33;;;;;;;22.30;13.70;;;;;;;13.81;100.00;99686.06;4805958;29;20073;-79
2021/10/03 08:06:58;;;;;;;24.52;13.10;;;;;;;13.80;100.00;99697.94;4810511;29;20053;-80
2021/10/03 08:09:24;;;;;;;20.55;12.95;;;;;;;13.81;100.00;99694.19;4806196;29;20039;-79
2021/10/03 08:11:49;;;;;;;25.40;13.15;;;;;;;13.80;100.00;99690.63;4762777;29;20142;-80
2021/10/03 08:14:15;;;;;;;25.38;13.95;;;;;;;13.84;100.00;99708.03;4806473;29;20046;-80
2021/10/03 08:16:40;;;;;;;20.60;12.30;;;;;;;13.87;100.00;99701.28;4775579;29;20513;-80
2021/10/03 08:19:05;;;;;;;26.55;13.30;;;;;;;13.90;100.00;99708.91;4806248;29;20458;-80
2021/10/03 08:21:31;;;;;;;23.10;11.93;;;;;;;13.82;100.00;99693.13;4805373;29;20366;-79
2021/10/03 08:23:57;;;;;;;22.42;11.80;;;;;;;13.95;100.00;99703.59;4805063;29;20431;-79
2021/10/03 08:26:23;;;;;;;23.33;12.40;;;;;;;13.96;100.00;99707.91;4774940;29;20031;-79
2021/10/03 08:28:49;;;;;;;23.58;12.45;;;;;;;13.99;100.00;99723.66;4790680;29;20046;-80
2021/10/03 08:31:16;;;;;;;20.25;11.95;;;;;;;14.01;100.00;99716.13;4788101;29;20050;-80
2021/10/03 08:33:42;;;;;;;25.73;12.95;;;;;;;13.99;100.00;99717.44;4791288;29;20486;-80
2021/10/03 08:36:08;;;;;;;27.30;13.32;;;;;;;13.99;100.00;99718.25;4794254;29;20042;-79
2021/10/03 08:38:33;;;;;;;24.42;12.35;;;;;;;13.80;100.00;99673.59;4790617;29;20066;-80
2021/10/03 08:41:01;;;;;;;21.52;12.55;;;;;;;14.05;100.00;99716.44;4809520;29;20039;-79
2021/10/03 08:43:28;;;;;;;29.83;12.75;;;;;;;14.07;100.00;99709.72;4793712;29;20030;-79
2021/10/03 08:45:54;;;;;;;27.65;13.27;;;;;;;14.10;100.00;99713.78;4763345;29;20034;-79
2021/10/03 08:48:19;;;;;;;21.50;12.43;;;;;;;14.06;100.00;99696.44;4810715;29;20464;-79
2021/10/03 08:50:46;;;;;;;21.10;12.02;;;;;;;14.05;100.00;99700.22;4792755;29;20043;-80
2021/10/03 08:53:14;;;;;;;25.27;12.85;;;;;;;14.17;100.00;99724.44;4806762;29;20039;-80
2021/10/03 08:55:40;;;;;;;20.90;12.40;;;;;;;14.01;100.00;99693.66;4774447;29;20091;-80
2021/10/03 08:58:05;;;;;;;20.92;11.77;;;;;;;14.06;100.00;99707.25;4792639;29;20370;-80
2021/10/03 09:00:31;;;;;;;22.85;12.40;;;;;;;14.17;100.00;99725.28;4803777;29;20493;-79
2021/10/03 09:03:06;;;;;;;19.98;11.98;;;;;;;14.14;100.00;99714.09;4769439;29;20126;-79
2021/10/03 09:05:35;;;;;;;25.17;11.95;;;;;;;14.18;100.00;99716.09;4803181;29;20427;-80
2021/10/03 09:08:10;;;;;;;20.70;11.45;;;;;;;14.18;100.00;99710.69;4791641;29;20050;-80
2021/10/03 09:10:47;;;;;;;21.85;12.15;;;;;;;14.21;100.00;99720.19;4792033;30;20097;-79
2021/10/03 09:13:13;;;;;;;26.33;13.35;;;;;;;14.21;100.00;99722.88;4776132;30;20031;-80
2021/10/03 09:15:39;;;;;;;24.05;12.32;;;;;;;14.08;100.00;99691.59;4802955;30;20050;-80
2021/10/03 09:18:06;;;;;;;24.77;12.50;;;;;;;14.23;100.00;99718.84;4781781;29;20031;-80
2021/10/03 09:20:32;;;;;;;20.95;12.35;;;;;;;14.21;100.00;99712.06;4772844;29;20416;-79
2021/10/03 09:23:17;;;;;;;19.98;12.57;;;;;;;14.14;100.00;99708.69;4805588;29;20092;-79
2021/10/03 09:25:51;;;;;;;23.33;12.85;;;;;;;14.14;100.00;99706.84;4787174;29;20530;-79
2021/10/03 09:28:19;;;;;;;21.13;12.90;;;;;;;14.26;100.00;99717.53;4805422;29;20035;-79
2021/10/03 09:31:15;;;;;;;23.00;12.45;;;;;;;14.28;100.00;99710.00;4802167;29;20084;-79
2021/10/03 09:33:58;;;;;;;21.25;12.23;;;;;;;14.24;100.00;99711.56;4801128;29;20043;-79
2021/10/03 09:36:30;;;;;;;25.27;12.88;;;;;;;14.26;100.00;99718.34;4804217;29;20054;-79
2021/10/03 09:39:01;;;;;;;23.90;12.95;;;;;;;14.30;100.00;99707.84;4791036;29;20117;-79
2021/10/03 09:41:30;;;;;;;24.88;12.95;;;;;;;14.32;100.00;99720.06;4813780;29;20034;-80
2021/10/03 09:44:01;;;;;;;24.70;13.82;;;;;;;14.26;100.00;99704.00;4810552;29;20087;-79
2021/10/03 09:46:34;;;;;;;24.70;13.73;;;;;;;14.29;100.00;99719.75;4811991;29;20347;-79
2021/10/03 09:49:01;;;;;;;22.50;12.45;;;;;;;14.28;100.00;99712.69;4810580;29;20101;-80
2021/10/03 09:51:27;;;;;;;21.85;13.15;;;;;;;14.25;100.00;99716.72;4779703;29;20103;-79
2021/10/03 09:53:52;;;;;;;20.80;13.27;;;;;;;14.26;100.00;99715.63;4775406;29;20440;-79
2021/10/03 09:56:18;;;;;;;21.48;12.70;;;;;;;14.27;100.00;99721.88;4790277;29;20074;-79
2021/10/03 09:58:46;;;;;;;17.02;13.15;;;;;;;14.15;100.00;99694.94;4805104;29;20528;-79
2021/10/03 10:01:12;;;;;;;21.40;12.85;;;;;;;14.28;100.00;99723.53;4786365;29;20035;-79
2021/10/03 10:03:38;;;;;;;20.50;12.98;;;;;;;14.28;100.00;99710.00;4789402;29;20042;-79
2021/10/03 10:06:04;;;;;;;21.15;13.27;;;;;;;14.27;100.00;99697.50;4804468;29;20101;-79
2021/10/03 10:08:36;;;;;;;25.90;12.43;;;;;;;14.28;100.00;99710.81;4792198;29;20050;-80
2021/10/03 10:11:16;;;;;;;19.70;12.90;;;;;;;14.26;100.00;99698.59;4804081;29;20031;-79
2021/10/03 10:13:51;;;;;;;21.27;12.85;;;;;;;14.26;100.00;99706.72;4791333;29;20454;-78
2021/10/03 10:16:52;;;;;;;21.80;12.65;;;;;;;14.31;100.00;99710.31;4780767;30;20039;-78
2021/10/03 10:19:42;;;;;;;19.42;13.00;;;;;;;14.32;100.00;99711.13;4781240;30;20096;-79
2021/10/03 10:22:19;;;;;;;23.35;14.13;;;;;;;14.35;100.00;99716.03;4784259;30;20035;-80
2021/10/03 10:24:52;;;;;;;22.00;13.23;;;;;;;14.33;100.00;99708.16;4775708;30;20370;-80
2021/10/03 10:27:29;;;;;;;18.50;12.75;;;;;;;14.33;100.00;99713.56;4792511;30;20371;-80
2021/10/03 10:30:15;;;;;;;25.48;14.60;;;;;;;14.32;100.00;99721.94;4797270;29;20034;-81
2021/10/03 10:32:56;;;;;;;21.67;13.00;;;;;;;14.30;100.00;99711.38;4807472;29;20045;-81
2021/10/03 10:35:24;;;;;;;22.92;13.00;;;;;;;14.24;100.00;99703.44;4797320;29;20039;-79
2021/10/03 10:37:55;;;;;;;24.75;12.88;;;;;;;14.29;100.00;99723.25;4801446;29;20028;-80
2021/10/03 10:40:24;;;;;;;23.98;13.63;;;;;;;14.33;100.00;99729.00;4813616;29;20082;-80
2021/10/03 10:43:18;;;;;;;26.50;13.27;;;;;;;14.33;100.00;99721.69;4819510;29;20067;-80
2021/10/03 10:45:46;;;;;;;22.80;12.52;;;;;;;14.32;100.00;99724.66;4802332;29;20044;-80
2021/10/03 10:48:12;;;;;;;26.35;12.98;;;;;;;14.33;100.00;99718.16;4792319;29;20406;-80
2021/10/03 10:50:44;;;;;;;32.75;13.55;;;;;;;14.28;100.00;99718.94;4793189;29;20038;-80
2021/10/03 10:53:20;;;;;;;25.65;13.23;;;;;;;14.29;100.00;99714.34;4808007;29;20053;-80
2021/10/03 10:56:06;;;;;;;28.40;13.50;;;;;;;14.25;100.00;99722.13;4784650;29;20116;-80
2021/10/03 10:58:34;;;;;;;23.23;13.60;;;;;;;14.25;100.00;99724.03;4791942;29;20118;-80
2021/10/03 11:01:18;;;;;;;24.58;14.45;;;;;;;14.25;100.00;99711.31;4807805;29;20035;-80
2021/10/03 11:03:44;;;;;;;27.13;14.65;;;;;;;14.25;100.00;99699.66;4785751;30;20031;-80
2021/10/03 11:06:31;;;;;;;25.98;14.02;;;;;;;14.23;100.00;99708.03;4785276;29;20042;-80
2021/10/03 11:08:59;;;;;;;26.70;15.00;;;;;;;14.24;100.00;99703.44;4806697;29;20035;-80
2021/10/03 11:12:05;;;;;;;25.85;14.55;;;;;;;14.24;100.00;99714.28;4799689;29;20066;-81
2021/10/03 11:14:30;;;;;;;29.23;14.93;;;;;;;14.20;100.00;99718.53;4743502;30;20048;-81
2021/10/03 11:17:03;;;;;;;24.23;14.80;;;;;;;14.17;100.00;99719.88;4788905;29;20043;-80